Time,TemperatureF,DewpointF,PressureIn,WindDirection,WindDirectionDegrees,WindSpeedMPH,WindSpeedGustMPH,Humidity,HourlyPrecipIn,Conditions,Clouds,dailyrainin,SoftwareType,DateUTC
2013-07-14 00:12:00,71.2,68.0,30.09,SW,222,2.0,6.0,88,0.00,,,0.00,weatherlink.com 1.10,2013-07-14 04:12:00,
2013-07-14 00:27:00,71.5,68.0,30.09,SSE,158,3.0,8.0,88,0.00,,,0.00,weatherlink.com 1.10,2013-07-14 04:27:00,
2013-07-14 00:42:00,71.1,68.0,30.09,South,169,5.0,6.0,89,0.00,,,0.00,weatherlink.com 1.10,2013-07-14 04:42:00,
2013-07-14 00:57:00,71.2,68.0,30.09,South,176,5.0,7.0,89,0.00,,,0.00,weatherlink.com 1.10,2013-07-14 04:57:00,
2013-07-14 01:12:00,71.1,68.0,30.09,SSW,206,1.0,5.0,89,0.00,,,0.00,weatherlink.com 1.10,2013-07-14 05:12:00,
2013-07-14 01:27:00,70.3,67.0,30.09,SSW,207,1.0,4.0,90,0.00,,,0.00,weatherlink.com 1.10,2013-07-14 05:27:00,
2013-07-14 01:42:00,69.8,67.0,30.09,SE,142,2.0,4.0,92,0.00,,,0.00,weatherlink.com 1.10,2013-07-14 05:42:00,
2013-07-14 01:57:00,69.6,67.0,30.09,SW,228,2.0,4.0,92,0.00,,,0.00,weatherlink.com 1.10,2013-07-14 05:57:00,
2013-07-14 02:12:00,69.0,67.0,30.09,SSW,201,0.0,3.0,93,0.00,,,0.00,weatherlink.com 1.10,2013-07-14 06:12:00,
2013-07-14 02:27:00,68.9,67.0,30.10,NNW,339,1.0,2.0,94,0.00,,,0.00,weatherlink.com 1.10,2013-07-14 06:27:00,
2013-07-14 02:42:00,69.2,68.0,30.09,NNW,340,2.0,3.0,94,0.00,,,0.00,weatherlink.com 1.10,2013-07-14 06:42:00,
2013-07-14 02:57:00,69.0,67.0,30.09,NE,39,1.0,2.0,94,0.00,,,0.00,weatherlink.com 1.10,2013-07-14 06:57:00,
2013-07-14 03:12:00,68.9,68.0,30.09,North,9,1.0,3.0,95,0.00,,,0.00,weatherlink.com 1.10,2013-07-14 07:12:00,
2013-07-14 03:27:00,68.7,67.0,30.08,NNW,346,1.0,1.0,95,0.01,,,0.01,weatherlink.com 1.10,2013-07-14 07:27:00,
2013-07-14 03:42:00,68.8,67.0,30.08,NW,326,0.0,2.0,95,0.02,,,0.02,weatherlink.com 1.10,2013-07-14 07:42:00,
2013-07-14 03:57:00,68.3,67.0,30.09,NW,326,1.0,2.0,96,0.04,,,0.04,weatherlink.com 1.10,2013-07-14 07:57:00,
2013-07-14 04:12:00,68.2,67.0,30.09,WNW,287,0.0,1.0,96,0.07,,,0.07,weatherlink.com 1.10,2013-07-14 08:12:00,
2013-07-14 04:27:00,68.4,68.0,30.09,SSW,193,1.0,3.0,97,0.06,,,0.07,weatherlink.com 1.10,2013-07-14 08:27:00,
2013-07-14 04:42:00,68.5,68.0,30.09,SSW,212,0.0,4.0,97,0.05,,,0.07,weatherlink.com 1.10,2013-07-14 08:42:00,
2013-07-14 04:57:00,68.1,67.0,30.10,SW,222,0.0,1.0,96,0.03,,,0.07,weatherlink.com 1.10,2013-07-14 08:57:00,
2013-07-14 05:12:00,68.0,67.0,30.11,NNW,342,0.0,1.0,97,0.03,,,0.10,weatherlink.com 1.10,2013-07-14 09:12:00,
2013-07-14 05:27:00,68.5,68.0,30.11,SSE,152,3.0,5.0,98,0.07,,,0.14,weatherlink.com 1.10,2013-07-14 09:27:00,
2013-07-14 05:43:00,68.7,68.0,30.12,South,180,2.0,5.0,97,0.08,,,0.15,weatherlink.com 1.10,2013-07-14 09:43:00,
2013-07-14 05:57:00,68.8,68.0,30.11,South,177,1.0,5.0,97,0.08,,,0.15,weatherlink.com 1.10,2013-07-14 09:57:00,
2013-07-14 06:12:00,68.7,68.0,30.12,South,182,2.0,10.0,97,0.05,,,0.15,weatherlink.com 1.10,2013-07-14 10:12:00,
2013-07-14 06:28:00,68.6,68.0,30.13,SSW,211,3.0,4.0,96,0.01,,,0.15,weatherlink.com 1.10,2013-07-14 10:28:00,
2013-07-14 06:43:00,68.6,68.0,30.14,South,179,3.0,6.0,97,0.03,,,0.18,weatherlink.com 1.10,2013-07-14 10:43:00,
2013-07-14 06:58:00,68.6,68.0,30.15,South,190,3.0,5.0,96,0.07,,,0.22,weatherlink.com 1.10,2013-07-14 10:58:00,
2013-07-14 07:13:00,68.3,68.0,30.15,SSW,195,2.0,7.0,97,0.15,,,0.30,weatherlink.com 1.10,2013-07-14 11:13:00,
2013-07-14 07:28:00,68.5,68.0,30.15,South,173,0.0,6.0,97,0.15,,,0.30,weatherlink.com 1.10,2013-07-14 11:28:00,
2013-07-14 07:43:00,68.6,68.0,30.15,SW,231,0.0,7.0,97,0.12,,,0.30,weatherlink.com 1.10,2013-07-14 11:43:00,
2013-07-14 07:58:00,68.8,68.0,30.16,SSW,206,1.0,5.0,96,0.07,,,0.30,weatherlink.com 1.10,2013-07-14 11:58:00,
2013-07-14 08:13:00,69.0,68.0,30.17,South,176,1.0,3.0,96,0.09,,,0.39,weatherlink.com 1.10,2013-07-14 12:13:00,
2013-07-14 08:28:00,69.0,68.0,30.17,SSE,162,2.0,4.0,96,0.16,,,0.46,weatherlink.com 1.10,2013-07-14 12:28:00,
2013-07-14 08:43:00,69.1,68.0,30.17,East,86,4.0,7.0,96,0.22,,,0.52,weatherlink.com 1.10,2013-07-14 12:43:00,
2013-07-14 08:58:00,69.0,68.0,30.18,SSW,204,1.0,6.0,96,0.24,,,0.54,weatherlink.com 1.10,2013-07-14 12:58:00,
2013-07-14 09:13:00,69.5,68.0,30.18,SSW,194,0.0,6.0,96,0.14,,,0.54,weatherlink.com 1.10,2013-07-14 13:13:00,
2013-07-14 09:28:00,70.2,69.0,30.18,SSE,163,0.0,4.0,96,0.07,,,0.54,weatherlink.com 1.10,2013-07-14 13:28:00,
2013-07-14 09:43:00,70.7,69.0,30.18,SSE,167,2.0,6.0,94,0.02,,,0.54,weatherlink.com 1.10,2013-07-14 13:43:00,
2013-07-14 09:58:00,70.4,69.0,30.18,South,171,4.0,6.0,95,0.03,,,0.57,weatherlink.com 1.10,2013-07-14 13:58:00,
2013-07-14 10:13:00,70.7,69.0,30.18,SSW,197,3.0,6.0,95,0.04,,,0.58,weatherlink.com 1.10,2013-07-14 14:13:00,
2013-07-14 10:28:00,70.7,69.0,30.19,SSE,158,4.0,8.0,94,0.05,,,0.59,weatherlink.com 1.10,2013-07-14 14:28:00,
2013-07-14 10:43:00,70.3,69.0,30.20,South,170,6.0,8.0,95,0.09,,,0.63,weatherlink.com 1.10,2013-07-14 14:43:00,
2013-07-14 10:58:00,70.2,69.0,30.20,East,89,5.0,9.0,95,0.07,,,0.64,weatherlink.com 1.10,2013-07-14 14:58:00,
2013-07-14 11:13:00,70.4,69.0,30.20,South,174,6.0,9.0,95,0.08,,,0.66,weatherlink.com 1.10,2013-07-14 15:13:00,
2013-07-14 11:28:00,70.8,69.0,30.21,SSW,200,5.0,8.0,95,0.07,,,0.66,weatherlink.com 1.10,2013-07-14 15:28:00,
2013-07-14 11:43:00,71.2,69.0,30.22,South,177,7.0,15.0,92,0.03,,,0.66,weatherlink.com 1.10,2013-07-14 15:43:00,
2013-07-14 11:58:00,71.6,69.0,30.21,West,268,3.0,15.0,91,0.03,,,0.67,weatherlink.com 1.10,2013-07-14 15:58:00,
2013-07-14 12:13:00,72.8,69.0,30.21,SSW,204,3.0,14.0,88,0.01,,,0.67,weatherlink.com 1.10,2013-07-14 16:13:00,
2013-07-14 12:29:00,72.1,68.0,30.21,SW,229,3.0,10.0,88,0.01,,,0.67,weatherlink.com 1.10,2013-07-14 16:29:00,
2013-07-14 12:43:00,71.0,68.0,30.21,SW,217,2.0,6.0,91,0.01,,,0.67,weatherlink.com 1.10,2013-07-14 16:43:00,
2013-07-14 12:58:00,70.6,68.0,30.21,SW,217,1.0,8.0,92,0.02,,,0.69,weatherlink.com 1.10,2013-07-14 16:58:00,
2013-07-14 13:13:00,71.0,69.0,30.21,SW,217,0.0,3.0,93,0.02,,,0.69,weatherlink.com 1.10,2013-07-14 17:13:00,
2013-07-14 13:29:00,71.0,69.0,30.21,SSE,159,2.0,4.0,93,0.03,,,0.70,weatherlink.com 1.10,2013-07-14 17:29:00,
2013-07-14 13:43:00,71.4,69.0,30.21,SSE,154,7.0,17.0,92,0.04,,,0.71,weatherlink.com 1.10,2013-07-14 17:43:00,
2013-07-14 13:58:00,72.6,69.0,30.21,SSE,165,9.0,11.0,87,0.02,,,0.71,weatherlink.com 1.10,2013-07-14 17:58:00,
2013-07-14 14:13:00,72.4,68.0,30.21,South,177,8.0,18.0,87,0.02,,,0.71,weatherlink.com 1.10,2013-07-14 18:13:00,
2013-07-14 14:28:00,71.6,69.0,30.21,SSW,208,6.0,10.0,90,0.01,,,0.71,weatherlink.com 1.10,2013-07-14 18:28:00,
2013-07-14 14:43:00,70.9,69.0,30.21,SSW,198,2.0,12.0,92,0.02,,,0.73,weatherlink.com 1.10,2013-07-14 18:43:00,
2013-07-14 14:58:00,71.2,69.0,30.21,SE,136,2.0,11.0,92,0.02,,,0.73,weatherlink.com 1.10,2013-07-14 18:58:00,
2013-07-14 15:13:00,70.9,69.0,30.21,SW,228,4.0,12.0,93,0.02,,,0.73,weatherlink.com 1.10,2013-07-14 19:13:00,
2013-07-14 15:28:00,70.2,68.0,30.22,SSE,150,6.0,24.0,93,0.06,,,0.77,weatherlink.com 1.10,2013-07-14 19:28:00,
2013-07-14 15:43:00,70.7,69.0,30.21,SSW,193,4.0,6.0,93,0.04,,,0.77,weatherlink.com 1.10,2013-07-14 19:43:00,
2013-07-14 15:58:00,71.6,69.0,30.21,SSW,194,4.0,6.0,91,0.04,,,0.77,weatherlink.com 1.10,2013-07-14 19:58:00,
2013-07-14 16:13:00,72.5,69.0,30.21,SSE,158,2.0,6.0,89,0.04,,,0.77,weatherlink.com 1.10,2013-07-14 20:13:00,
2013-07-14 16:28:00,73.0,70.0,30.21,NW,309,0.0,2.0,89,0.00,,,0.77,weatherlink.com 1.10,2013-07-14 20:28:00,
2013-07-14 16:43:00,73.7,70.0,30.20,NW,321,0.0,2.0,88,0.00,,,0.77,weatherlink.com 1.10,2013-07-14 20:43:00,
2013-07-14 16:58:00,73.9,70.0,30.19,SSW,205,3.0,4.0,87,0.00,,,0.77,weatherlink.com 1.10,2013-07-14 20:58:00,
2013-07-14 17:13:00,71.7,69.0,30.21,South,183,6.0,17.0,92,0.15,,,0.92,weatherlink.com 1.10,2013-07-14 21:13:00,
2013-07-14 17:28:00,70.2,69.0,30.21,South,178,5.0,15.0,94,0.24,,,1.01,weatherlink.com 1.10,2013-07-14 21:28:00,
2013-07-14 17:43:00,69.7,68.0,30.22,SSW,211,4.0,9.0,95,0.32,,,1.09,weatherlink.com 1.10,2013-07-14 21:43:00,
2013-07-14 17:59:00,69.2,67.0,30.22,SE,142,4.0,10.0,92,0.32,,,1.09,weatherlink.com 1.10,2013-07-14 21:59:00,
2013-07-14 18:14:00,68.8,67.0,30.21,South,187,1.0,6.0,93,0.17,,,1.09,weatherlink.com 1.10,2013-07-14 22:14:00,
2013-07-14 18:29:00,69.0,67.0,30.21,SSW,200,1.0,3.0,93,0.08,,,1.09,weatherlink.com 1.10,2013-07-14 22:29:00,
2013-07-14 18:44:00,69.6,68.0,30.21,NNW,345,2.0,2.0,94,0.00,,,1.09,weatherlink.com 1.10,2013-07-14 22:44:00,
2013-07-14 18:59:00,69.9,68.0,30.21,NNW,327,0.0,3.0,92,0.00,,,1.09,weatherlink.com 1.10,2013-07-14 22:59:00,
2013-07-14 19:14:00,70.3,68.0,30.22,NNW,333,0.0,1.0,92,0.00,,,1.09,weatherlink.com 1.10,2013-07-14 23:14:00,
2013-07-14 19:29:00,71.7,69.0,30.22,WSW,255,0.0,2.0,90,0.00,,,1.09,weatherlink.com 1.10,2013-07-14 23:29:00,
2013-07-14 19:44:00,72.1,69.0,30.22,NW,310,0.0,2.0,90,0.00,,,1.09,weatherlink.com 1.10,2013-07-14 23:44:00,
2013-07-14 19:59:00,71.1,68.0,30.22,NW,314,0.0,1.0,91,0.00,,,1.09,weatherlink.com 1.10,2013-07-14 23:59:00,
2013-07-14 20:14:00,69.3,68.0,30.23,NW,314,0.0,1.0,94,0.00,,,1.09,weatherlink.com 1.10,2013-07-15 00:14:00,
2013-07-14 20:29:00,68.9,67.0,30.24,South,173,4.0,13.0,92,0.00,,,1.09,weatherlink.com 1.10,2013-07-15 00:29:00,
2013-07-14 20:44:00,68.5,67.0,30.23,NNW,330,0.0,1.0,93,0.00,,,1.09,weatherlink.com 1.10,2013-07-15 00:44:00,
2013-07-14 20:59:00,67.6,66.0,30.23,SSE,158,1.0,3.0,95,0.00,,,1.09,weatherlink.com 1.10,2013-07-15 00:59:00,
2013-07-14 21:15:00,67.3,66.0,30.23,SSE,150,1.0,5.0,95,0.00,,,1.09,weatherlink.com 1.10,2013-07-15 01:15:00,
2013-07-14 21:29:00,66.9,66.0,30.24,SSW,200,1.0,4.0,95,0.00,,,1.09,weatherlink.com 1.10,2013-07-15 01:29:00,
2013-07-14 21:44:00,66.6,65.0,30.25,ESE,110,0.0,1.0,95,0.00,,,1.09,weatherlink.com 1.10,2013-07-15 01:44:00,
2013-07-14 21:59:00,66.2,65.0,30.25,NE,48,0.0,0.0,96,0.00,,,1.09,weatherlink.com 1.10,2013-07-15 01:59:00,
2013-07-14 22:14:00,66.0,65.0,30.25,NE,37,0.0,1.0,97,0.00,,,1.09,weatherlink.com 1.10,2013-07-15 02:14:00,
2013-07-14 22:29:00,65.8,65.0,30.26,North,5,0.0,1.0,97,0.00,,,1.09,weatherlink.com 1.10,2013-07-15 02:29:00,
2013-07-14 22:44:00,65.2,64.0,30.26,ENE,69,1.0,1.0,97,0.00,,,1.09,weatherlink.com 1.10,2013-07-15 02:44:00,
2013-07-14 22:59:00,65.1,64.0,30.26,NE,49,1.0,3.0,97,0.00,,,1.09,weatherlink.com 1.10,2013-07-15 02:59:00,
2013-07-14 23:14:00,65.2,64.0,30.26,NNW,333,2.0,2.0,97,0.00,,,1.09,weatherlink.com 1.10,2013-07-15 03:14:00,
2013-07-14 23:29:00,65.2,64.0,30.26,North,353,0.0,1.0,97,0.00,,,1.09,weatherlink.com 1.10,2013-07-15 03:29:00,
2013-07-14 23:44:00,65.2,64.0,30.27,SW,225,0.0,2.0,97,0.00,,,1.09,weatherlink.com 1.10,2013-07-15 03:44:00,
2013-07-14 23:59:00,65.4,65.0,30.27,SW,216,0.0,1.0,98,0.01,,,0.00,weatherlink.com 1.10,2013-07-15 03:59:00,